Terminal Aerodrome Forecast
Issued by NWS Kansas City/Pleasant Hill, MO

Home | Current Version | Previous Version | Text Only | Print | Product List | Glossary On
Versions: 1 2 3 4 5 6 7 8 9 10 11 12 13 14 15 16 17 18 19
000
FTUS43 KEAX 180747 AAA
TAFMCI
TAF AMD
KMCI 180747Z 1808/1906 VRB04KT 2SM BR SCT003 OVC010
      TEMPO 1808/1809 1/2SM -DZ FG VV001
     FM180900 34015G25KT P6SM VCSH OVC007
     FM181200 34018G28KT 6SM -RA BR BKN012
     FM181800 33022G30KT P6SM SCT050=

USA.gov is the U.S. government's official web portal to all federal, state and local government web resources and services.